Flight Track Log - Related Links

Times and Time Zones

All times are in EDT time to prevent confusion due to time zone crossing. See the N7711U flight status page for this flight to view local times or setup timezone preferences in your user account.

Time Position Orientation Groundspeed Altitude Reporting Facility
EDT Latitude Longitude Course Direction KTS MPH feet Rate Location/Type
Mon 11:28:15 AM 8.1383 124.2172 17° North  Level FlightAware Approximate
Mon 11:29:32 AM 41.6000 -73.6000 323° Northwest 116 133 5,500  Level New York TRACON
Mon 11:30:32 AM 41.6167 -73.6167 360° North 116 133 5,500  Level New York TRACON
Mon 11:31:38 AM 41.6667 -73.6167 323° Northwest 117 135 5,500  Level New York TRACON
Mon 11:32:32 AM 41.6833 -73.6333 360° North 114 131 5,500 56 Level New York TRACON
Mon 11:33:26 AM 41.7167 -73.6333 341° North 114 131 5,600  Climbing New York TRACON
Mon 11:34:15 AM 41.7417 -73.6447 348° North 118 136 5,500 -55 Descending Boston Center
Mon 11:35:15 AM 41.7728 -73.6539 347° North 118 136 5,500 -50 Level Boston Center
Mon 11:36:15 AM 41.7997 -73.6625 346° North 118 136 5,400 -50 Descending Boston Center
Mon 11:37:15 AM 41.8350 -73.6744 351° North 118 136 5,400  Level Boston Center
Mon 11:38:15 AM 41.8622 -73.6806 352° North 113 130 5,400 50 Level Boston Center
Mon 11:39:15 AM 41.8975 -73.6869 350° North 113 130 5,500 100 Climbing Boston Center
Mon 11:40:15 AM 41.9244 -73.6931 353° North 113 130 5,600 50 Climbing Boston Center
Mon 11:41:15 AM 41.9600 -73.6992 350° North 113 130 5,600  Level Boston Center
Mon 11:42:15 AM 41.9869 -73.7053 343° North 113 130 5,600 -50 Level Boston Center
Mon 11:43:15 AM 42.0222 -73.7200 342° North 113 130 5,500 -50 Descending Boston Center
Mon 11:44:15 AM 42.0492 -73.7317 352° North 113 130 5,500  Level Boston Center
Mon 11:45:15 AM 42.0844 -73.7381 355° North 108 124 5,500  Level Boston Center
Mon 11:46:15 AM 42.1158 -73.7414 349° North 113 130 5,500  Level Boston Center
Mon 11:47:15 AM 42.1511 -73.7506 345° North 113 130 5,500  Level Boston Center
Mon 11:48:37 AM 42.1925 -73.7656 348° North 115 132 5,500 42 Level Boston Center
Mon 11:49:37 AM 42.2258 -73.7747 352° North 118 136 5,600 50 Climbing Boston Center
Mon 11:50:38 AM 42.2592 -73.7808 345° North 119 137 5,600 -49 Level Boston Center
Mon 11:51:39 AM 42.2922 -73.7928 350° North 120 138 5,500 -76 Descending Boston Center
Mon 11:54:34 AM 42.3858 -73.8147 352° North 117 135 5,300 -51 Descending Boston Center
Mon 11:55:35 AM 42.4169 -73.8208 356° North 118 136 5,300  Level Boston Center
Mon 11:56:35 AM 42.4525 -73.8244 348° North 118 136 5,300 -149 Level Boston Center
Mon 11:57:36 AM 42.4856 -73.8336 343° North 124 143 5,000 -344 Descending Boston Center
Mon 11:58:37 AM 42.5208 -73.8486 350° North 130 150 4,600 -397 Descending Boston Center
Mon 11:59:37 AM 42.5603 -73.8581 344° North 131 151 4,200 -198 Descending Boston Center
Mon 12:00:38 PM 42.5914 -73.8700 356° North 123 142 4,200 -234 Level Boston Center
Mon 12:01:45 PM 42.6289 -73.8736 353° North 129 148 3,700 -425 Descending Boston Center
Mon 12:02:45 PM 42.6664 -73.8800 346° North 132 152 3,300 -347 Descending Boston Center
Mon 12:03:46 PM 42.7036 -73.8922 347° North 137 158 3,000 -347 Descending Boston Center
Mon 12:04:46 PM 42.7411 -73.9044 347° North 136 157 2,600 -400 Descending Boston Center

Login

Don't have an account? Register now (free) for customized features, flight alerts, and more!